Main page
METAR-TAF:

METAR-TAF

Airports :

Austin Municipal Airport

Austin, Minnesota, United States

latitude: 43-40N, longitude: 092-56W, elevation: 1230 ft

Current weather observation

The report was made 12 minutes ago, at 22:15 UTC
Wind 14 mph from the Southeast with gusts up to 17 mph
Temperature 54°F
Humidity 71%
Pressure 29.96 in. Hg
Visibility: 10 miles
Broken clouds at a height of 2300 ft

METAR: KAUM 012215Z AUTO 14012G15KT 10SM BKN023 12/07 A2996 RMK AO2

Time: 17:27 (22:27 UTC)


TAF: missing

Weather observations and forecasts of more than 4000 airports (METAR and TAF reports).

The available stations are represented by yellow and red dots on the map.

Hover mouse over dot to see the name of the station.

Then click to see weather observations and forecasts.

To change the map : click on the green buttons with a black cross to zoom in, on the green button with a dash to zoom out, or on the green arrows for adjacent maps.


METAR-TAF: